Time;durP1;ratioP1;P1;durP2;ratioP2;P2;SDS_P1;SDS_P2;PMS_P1;PMS_P2;Temp;Humidity;BMP_temperature;BMP_pressure;BME280_temperature;BME280_humidity;BME280_pressure;Samples;Min_cycle;Max_cycle;Signal;HPM_P1;HPM_P2
2022/11/20 00:01:30;;;;;;;27.20;15.63;;;0.20;99.90;;;;;;4988204;28;20447;-87
2022/11/20 00:03:59;;;;;;;31.67;18.70;;;0.10;99.90;;;;;;4989003;28;20520;-88
2022/11/20 00:06:27;;;;;;;31.27;17.13;;;0.10;99.90;;;;;;4987495;28;20811;-87
2022/11/20 00:08:56;;;;;;;38.63;18.37;;;0.10;99.90;;;;;;4988274;28;20477;-87
2022/11/20 00:11:26;;;;;;;32.43;17.50;;;0.20;99.90;;;;;;4983392;28;20487;-87
2022/11/20 00:13:54;;;;;;;26.90;16.43;;;0.10;99.90;;;;;;4985747;28;20466;-87
2022/11/20 00:16:23;;;;;;;39.10;17.53;;;0.10;99.90;;;;;;4982078;28;20512;-87
2022/11/20 00:18:50;;;;;;;30.80;15.27;;;0.10;99.90;;;;;;4989474;28;21194;-88
2022/11/20 00:21:20;;;;;;;34.10;17.20;;;0.10;99.90;;;;;;4987050;28;20537;-89
2022/11/20 00:23:47;;;;;;;31.53;18.17;;;0.10;99.90;;;;;;4981768;28;20534;-88
2022/11/20 00:26:16;;;;;;;27.53;15.20;;;0.20;99.90;;;;;;4986484;28;20460;-88
2022/11/20 00:28:49;;;;;;;32.93;17.87;;;0.20;99.90;;;;;;4988036;28;20477;-88
2022/11/20 00:31:17;;;;;;;29.80;15.60;;;0.20;99.90;;;;;;4993865;28;20458;-88
2022/11/20 00:33:45;;;;;;;30.77;15.70;;;0.10;99.90;;;;;;4987447;28;20997;-88
2022/11/20 00:36:14;;;;;;;26.20;15.30;;;0.30;99.90;;;;;;4987145;28;20487;-89
2022/11/20 00:38:41;;;;;;;36.30;17.70;;;0.20;99.90;;;;;;4986307;28;20471;-87
2022/11/20 00:41:09;;;;;;;31.27;14.90;;;0.20;99.90;;;;;;4983977;28;20753;-87
2022/11/20 00:43:37;;;;;;;32.50;18.40;;;0.30;99.90;;;;;;4982348;28;20521;-88
2022/11/20 00:46:08;;;;;;;29.70;18.77;;;0.20;99.90;;;;;;4986968;28;20453;-88
2022/11/20 00:48:35;;;;;;;31.40;16.63;;;0.30;99.90;;;;;;4982051;28;20465;-89
2022/11/20 00:51:03;;;;;;;34.70;18.50;;;0.20;99.90;;;;;;4984594;28;20677;-87
2022/11/20 00:53:30;;;;;;;28.50;16.00;;;0.20;99.90;;;;;;4986693;28;20466;-88
2022/11/20 00:55:58;;;;;;;35.90;17.93;;;0.30;99.90;;;;;;4987188;28;20816;-87
2022/11/20 00:58:29;;;;;;;26.20;15.67;;;0.20;99.90;;;;;;4985499;28;20438;-88
2022/11/20 01:01:01;;;;;;;34.67;17.70;;;0.30;99.90;;;;;;4982192;28;20514;-88
2022/11/20 01:03:32;;;;;;;30.80;16.43;;;0.20;99.90;;;;;;4985555;28;20547;-88
2022/11/20 01:06:01;;;;;;;31.70;16.80;;;0.10;99.90;;;;;;4986098;28;20565;-88
2022/11/20 01:08:31;;;;;;;28.90;17.77;;;0.10;99.90;;;;;;4987054;28;20517;-89
2022/11/20 01:11:00;;;;;;;34.30;16.67;;;0.20;99.90;;;;;;4987449;28;20494;-87
2022/11/20 01:13:40;;;;;;;28.40;16.70;;;0.10;99.90;;;;;;4986058;28;21002;-89
2022/11/20 01:16:09;;;;;;;32.60;16.80;;;0.10;99.90;;;;;;4983434;28;20550;-89
2022/11/20 01:18:39;;;;;;;32.83;17.73;;;0.20;99.90;;;;;;4986397;28;20462;-86
2022/11/20 01:21:08;;;;;;;26.00;14.47;;;0.10;99.90;;;;;;4987669;28;20493;-88
2022/11/20 01:23:37;;;;;;;32.73;16.20;;;0.00;99.90;;;;;;4988195;28;20490;-88
2022/11/20 01:26:05;;;;;;;31.70;17.27;;;0.10;99.90;;;;;;4988309;28;20452;-88
2022/11/20 01:28:32;;;;;;;30.53;18.07;;;0.10;99.90;;;;;;4989781;28;21035;-87
2022/11/20 01:31:00;;;;;;;33.43;17.43;;;0.10;99.90;;;;;;4991452;28;20502;-87
2022/11/20 01:33:28;;;;;;;36.33;18.77;;;0.20;99.90;;;;;;4988356;28;20465;-87
2022/11/20 01:36:05;;;;;;;32.23;15.80;;;0.10;99.90;;;;;;4995266;28;20451;-87
2022/11/20 01:38:32;;;;;;;34.17;17.87;;;0.20;99.90;;;;;;4992765;28;20467;-87
2022/11/20 01:40:59;;;;;;;29.03;18.20;;;0.30;99.90;;;;;;5013325;28;20481;-86
2022/11/20 01:43:25;;;;;;;35.10;16.50;;;0.20;99.90;;;;;;5014183;28;20466;-86
2022/11/20 01:46:15;;;;;;;32.60;16.20;;;0.30;99.90;;;;;;5002357;28;20508;-86
2022/11/20 01:48:49;;;;;;;26.40;15.50;;;0.30;99.90;;;;;;4992072;28;20537;-86
2022/11/20 01:51:23;;;;;;;31.57;18.37;;;0.40;99.90;;;;;;4992161;28;20446;-86
2022/11/20 01:53:53;;;;;;;30.80;16.77;;;0.30;99.90;;;;;;4995760;28;20442;-85
2022/11/20 01:56:20;;;;;;;24.40;15.50;;;0.40;99.90;;;;;;4989110;28;20470;-86
2022/11/20 01:58:52;;;;;;;30.70;18.40;;;0.30;99.90;;;;;;4990094;28;20961;-87
2022/11/20 02:01:19;;;;;;;34.20;16.37;;;0.40;99.90;;;;;;4990203;28;21050;-87
2022/11/20 02:03:46;;;;;;;37.20;17.60;;;0.40;99.90;;;;;;4997521;28;20509;-86
2022/11/20 02:06:20;;;;;;;36.40;17.97;;;0.30;99.90;;;;;;4986471;28;20493;-87
2022/11/20 02:08:47;;;;;;;31.93;15.63;;;0.40;99.90;;;;;;4984604;28;20506;-86
2022/11/20 02:11:14;;;;;;;33.43;18.80;;;0.40;99.90;;;;;;4987795;28;20498;-86
2022/11/20 02:13:44;;;;;;;36.80;17.90;;;0.20;99.90;;;;;;4991472;28;20481;-87
2022/11/20 02:16:17;;;;;;;28.60;16.93;;;0.10;99.90;;;;;;4989852;28;20453;-86
2022/11/20 02:18:45;;;;;;;32.20;18.27;;;0.10;99.90;;;;;;4981477;28;20854;-86
2022/11/20 02:21:22;;;;;;;34.43;16.70;;;0.10;99.90;;;;;;4976516;28;20490;-86
2022/11/20 02:24:03;;;;;;;26.87;16.20;;;0.10;99.90;;;;;;4989512;28;21051;-86
2022/11/20 02:26:32;;;;;;;24.17;13.40;;;0.10;99.90;;;;;;4982849;28;20995;-86
2022/11/20 02:29:01;;;;;;;23.87;14.00;;;0.10;99.90;;;;;;4988673;28;20509;-86
2022/11/20 02:31:28;;;;;;;29.63;16.43;;;0.00;99.90;;;;;;4988301;28;20521;-86
2022/11/20 02:33:56;;;;;;;29.07;15.83;;;0.10;99.90;;;;;;4988545;28;20471;-87
2022/11/20 02:36:26;;;;;;;27.30;15.00;;;0.20;99.90;;;;;;4990700;28;21127;-87
2022/11/20 02:38:54;;;;;;;27.23;15.17;;;0.10;99.90;;;;;;4989299;28;21200;-86
2022/11/20 02:41:22;;;;;;;26.40;14.80;;;0.10;99.90;;;;;;4987169;28;20927;-87
2022/11/20 02:43:49;;;;;;;29.03;15.87;;;0.10;99.90;;;;;;4989455;28;20482;-86
2022/11/20 02:46:16;;;;;;;27.67;15.07;;;0.10;99.90;;;;;;4989511;28;20443;-87
2022/11/20 02:48:43;;;;;;;28.10;14.57;;;0.20;99.90;;;;;;4989029;28;20459;-86
2022/11/20 02:51:10;;;;;;;32.30;16.70;;;0.20;99.90;;;;;;4977689;28;21116;-86
2022/11/20 02:53:37;;;;;;;29.60;13.60;;;0.10;99.90;;;;;;4989604;28;20457;-86
2022/11/20 02:56:05;;;;;;;33.23;16.87;;;0.10;99.90;;;;;;4994440;28;20498;-86
2022/11/20 02:58:33;;;;;;;24.30;14.10;;;0.00;99.90;;;;;;5004613;28;20490;-87
2022/11/20 03:01:00;;;;;;;39.60;16.87;;;0.00;99.90;;;;;;5006634;28;20510;-87
2022/11/20 03:03:27;;;;;;;24.20;14.80;;;0.10;99.90;;;;;;5019575;28;20462;-86
2022/11/20 03:05:54;;;;;;;30.87;16.60;;;0.10;99.90;;;;;;4992478;28;20510;-87
2022/11/20 03:08:21;;;;;;;32.23;15.20;;;0.00;99.90;;;;;;4990017;28;20472;-86
2022/11/20 03:10:48;;;;;;;23.13;13.30;;;0.20;99.90;;;;;;4988859;28;20447;-87
2022/11/20 03:13:14;;;;;;;26.03;15.37;;;0.20;99.90;;;;;;4987807;28;20459;-87
2022/11/20 03:15:43;;;;;;;24.97;14.57;;;0.20;99.90;;;;;;4985988;28;20525;-86
2022/11/20 03:18:10;;;;;;;26.80;14.90;;;0.30;99.90;;;;;;4989104;28;20798;-86
2022/11/20 03:20:37;;;;;;;26.10;14.57;;;0.30;99.90;;;;;;4979220;28;20483;-86
2022/11/20 03:23:04;;;;;;;26.07;15.47;;;0.40;99.90;;;;;;4997798;28;20542;-87
2022/11/20 03:25:31;;;;;;;28.13;14.90;;;0.30;99.90;;;;;;4989144;28;20490;-86
2022/11/20 03:27:58;;;;;;;28.10;13.87;;;0.30;99.90;;;;;;4990568;28;20544;-86
2022/11/20 03:30:24;;;;;;;23.97;14.00;;;0.30;99.90;;;;;;4986678;28;20479;-86
2022/11/20 03:32:55;;;;;;;27.93;15.10;;;0.30;99.90;;;;;;4988743;28;20457;-86
2022/11/20 03:35:22;;;;;;;24.73;14.67;;;0.30;99.90;;;;;;4988143;28;21002;-86
2022/11/20 03:37:49;;;;;;;31.43;14.77;;;0.30;99.90;;;;;;4987791;28;20521;-86
2022/11/20 03:40:16;;;;;;;27.53;15.30;;;0.30;99.90;;;;;;4986277;28;21026;-87
2022/11/20 03:42:46;;;;;;;31.50;16.87;;;0.30;99.90;;;;;;4985796;28;20451;-86
2022/11/20 03:45:14;;;;;;;26.17;15.50;;;0.30;99.90;;;;;;4987975;28;20514;-86
2022/11/20 03:47:41;;;;;;;24.60;14.90;;;0.40;99.90;;;;;;4986268;28;20447;-86
2022/11/20 03:50:11;;;;;;;27.93;15.03;;;0.40;99.90;;;;;;4986588;28;20509;-86
2022/11/20 03:52:38;;;;;;;28.73;15.03;;;0.40;99.90;;;;;;4987337;28;20453;-86
2022/11/20 03:55:05;;;;;;;32.27;13.57;;;0.50;99.90;;;;;;4988005;28;20505;-86
2022/11/20 03:57:32;;;;;;;24.90;13.00;;;0.60;99.90;;;;;;4983789;28;20855;-87
2022/11/20 04:00:00;;;;;;;29.77;17.30;;;0.60;99.90;;;;;;4986670;28;20446;-86
2022/11/20 04:02:27;;;;;;;23.17;14.40;;;0.70;99.90;;;;;;4976789;28;20962;-86
2022/11/20 04:04:54;;;;;;;29.57;17.33;;;0.70;99.90;;;;;;4985471;28;20806;-87
2022/11/20 04:07:22;;;;;;;26.47;15.23;;;0.70;99.90;;;;;;4986195;28;20458;-87
2022/11/20 04:09:49;;;;;;;26.90;14.63;;;0.80;99.90;;;;;;4986388;28;20513;-84
2022/11/20 04:12:16;;;;;;;29.90;15.90;;;0.90;99.90;;;;;;4987063;28;21005;-85
2022/11/20 04:14:43;;;;;;;26.73;15.77;;;0.80;99.90;;;;;;4987002;28;20475;-84
2022/11/20 04:17:10;;;;;;;31.87;16.87;;;0.80;99.90;;;;;;4987758;28;20443;-86
2022/11/20 04:19:36;;;;;;;36.13;15.97;;;0.80;99.90;;;;;;4978874;28;20456;-87
2022/11/20 04:22:03;;;;;;;25.23;15.37;;;0.80;99.90;;;;;;4987137;28;20502;-87
2022/11/20 04:24:32;;;;;;;25.67;14.77;;;0.70;99.90;;;;;;4982004;28;20510;-84
2022/11/20 04:26:59;;;;;;;32.37;16.93;;;0.70;99.90;;;;;;4981300;28;20502;-87
2022/11/20 04:29:26;;;;;;;28.67;17.37;;;0.50;99.90;;;;;;4990301;28;20447;-87
2022/11/20 04:31:52;;;;;;;25.87;13.67;;;0.50;99.90;;;;;;4986311;28;20548;-87
2022/11/20 04:34:19;;;;;;;30.93;14.93;;;0.50;99.90;;;;;;4977725;28;21027;-86
2022/11/20 04:36:46;;;;;;;25.27;15.67;;;0.50;99.90;;;;;;4976842;28;20449;-86
2022/11/20 04:39:15;;;;;;;27.53;16.67;;;0.50;99.90;;;;;;4986004;28;20516;-86
2022/11/20 04:41:43;;;;;;;26.80;15.27;;;0.50;99.90;;;;;;4985241;28;20590;-86
2022/11/20 04:44:10;;;;;;;29.80;16.70;;;0.60;99.90;;;;;;4987356;28;20554;-86
2022/11/20 04:46:38;;;;;;;29.33;14.67;;;0.60;99.90;;;;;;4986683;28;21316;-88
2022/11/20 04:49:06;;;;;;;31.97;16.67;;;0.60;99.90;;;;;;4986389;28;20893;-86
2022/11/20 04:51:33;;;;;;;29.67;16.30;;;0.60;99.90;;;;;;4986948;28;20510;-86
2022/11/20 04:54:00;;;;;;;22.63;14.30;;;0.70;99.90;;;;;;4995408;28;20453;-87
2022/11/20 04:56:27;;;;;;;27.30;15.57;;;0.70;99.90;;;;;;4991410;28;20485;-87
2022/11/20 04:58:56;;;;;;;25.90;14.50;;;0.60;99.90;;;;;;4990684;28;20537;-86
2022/11/20 05:01:25;;;;;;;30.13;17.90;;;0.70;99.90;;;;;;4991783;28;20502;-86
2022/11/20 05:03:53;;;;;;;23.77;13.80;;;0.70;99.90;;;;;;5016602;28;20482;-86
2022/11/20 05:06:21;;;;;;;28.23;17.73;;;0.80;99.90;;;;;;5016125;28;20459;-84
2022/11/20 05:08:48;;;;;;;29.07;14.30;;;0.80;99.90;;;;;;4996033;28;20498;-85
2022/11/20 05:11:18;;;;;;;28.17;15.93;;;0.80;99.90;;;;;;4986958;28;20463;-87
2022/11/20 05:13:45;;;;;;;28.03;14.67;;;0.80;99.90;;;;;;4983920;28;20455;-86
2022/11/20 05:16:14;;;;;;;29.87;15.63;;;0.80;99.90;;;;;;4991037;28;20513;-86
2022/11/20 05:18:42;;;;;;;32.20;16.00;;;0.80;99.90;;;;;;4993385;28;20446;-84
2022/11/20 05:21:10;;;;;;;30.03;15.83;;;0.80;99.90;;;;;;4987770;28;20478;-84
2022/11/20 05:23:38;;;;;;;36.27;17.07;;;0.80;99.90;;;;;;4994352;28;20454;-84
2022/11/20 05:26:06;;;;;;;30.07;15.70;;;0.80;99.90;;;;;;4982978;28;20884;-84
2022/11/20 05:28:33;;;;;;;28.90;16.37;;;0.80;99.90;;;;;;4991223;28;20678;-84
2022/11/20 05:31:06;;;;;;;24.93;15.90;;;0.80;99.90;;;;;;4989878;28;20485;-86
2022/11/20 05:33:36;;;;;;;26.27;16.20;;;0.70;99.90;;;;;;4989862;28;20975;-87
2022/11/20 05:36:03;;;;;;;27.03;16.20;;;0.80;99.90;;;;;;4989919;28;20878;-84
2022/11/20 05:38:30;;;;;;;26.85;16.45;;;0.90;99.90;;;;;;4984584;28;20475;-87
2022/11/20 05:41:04;;;;;;;27.13;16.27;;;0.80;99.90;;;;;;4989557;28;20228;-87
2022/11/20 05:43:34;;;;;;;32.87;16.80;;;0.90;99.90;;;;;;4989747;28;20443;-86
2022/11/20 05:46:02;;;;;;;26.23;14.20;;;0.90;99.90;;;;;;4989225;28;20557;-86
2022/11/20 05:48:28;;;;;;;28.67;15.60;;;0.80;99.90;;;;;;4995574;28;20520;-86
2022/11/20 05:50:58;;;;;;;26.50;14.23;;;0.80;99.90;;;;;;4982275;28;20501;-87
2022/11/20 05:53:25;;;;;;;27.73;14.23;;;0.70;99.90;;;;;;4986062;28;20954;-88
2022/11/20 05:55:58;;;;;;;27.38;17.42;;;0.80;99.90;;;;;;4998466;28;20918;-86
2022/11/20 05:58:25;;;;;;;29.60;16.73;;;0.80;99.90;;;;;;4988471;28;20208;-87
2022/11/20 06:00:52;;;;;;;32.67;17.57;;;0.90;99.90;;;;;;4988990;28;20258;-86
2022/11/20 06:03:19;;;;;;;35.80;17.37;;;0.90;99.90;;;;;;4989658;28;20527;-86
2022/11/20 06:05:46;;;;;;;28.43;16.00;;;0.80;99.90;;;;;;4989107;28;20502;-86
2022/11/20 06:08:14;;;;;;;35.07;17.20;;;0.90;99.90;;;;;;4989507;28;20451;-83
2022/11/20 06:10:41;;;;;;;25.37;15.10;;;1.00;99.90;;;;;;4985761;28;20498;-83
2022/11/20 06:13:08;;;;;;;28.13;15.40;;;1.00;99.90;;;;;;4987128;28;20522;-84
2022/11/20 06:15:35;;;;;;;32.40;17.00;;;1.00;99.90;;;;;;4988542;28;20443;-84
2022/11/20 06:18:02;;;;;;;27.03;16.03;;;1.00;99.90;;;;;;4989228;28;20528;-84
2022/11/20 06:20:29;;;;;;;35.20;16.77;;;1.00;99.90;;;;;;4988036;28;20529;-85
2022/11/20 06:22:56;;;;;;;27.70;16.43;;;1.10;99.90;;;;;;4989926;28;20483;-84
2022/11/20 06:25:24;;;;;;;27.13;17.50;;;1.20;99.90;;;;;;4981809;28;20456;-84
2022/11/20 06:27:51;;;;;;;56.87;30.37;;;1.10;99.90;;;;;;4986028;28;20455;-85
2022/11/20 06:30:18;;;;;;;79.20;45.50;;;1.20;99.90;;;;;;4981237;28;20484;-85
2022/11/20 06:32:45;;;;;;;65.17;36.63;;;1.20;99.90;;;;;;4980936;28;21193;-84
2022/11/20 06:35:12;;;;;;;51.23;28.30;;;1.30;99.90;;;;;;4986882;28;20450;-83
2022/11/20 06:37:39;;;;;;;37.13;22.00;;;1.20;99.90;;;;;;5005346;28;20478;-85
2022/11/20 06:40:07;;;;;;;31.17;18.70;;;1.30;99.90;;;;;;4984292;28;21239;-84
2022/11/20 06:42:35;;;;;;;28.43;16.73;;;1.20;99.90;;;;;;4988776;28;20530;-84
2022/11/20 06:45:02;;;;;;;25.77;14.17;;;1.20;99.90;;;;;;4983405;28;20514;-84
2022/11/20 06:47:29;;;;;;;29.80;16.37;;;1.20;99.90;;;;;;4989834;28;20927;-84
2022/11/20 06:49:56;;;;;;;32.13;16.93;;;1.20;99.90;;;;;;4984051;28;20457;-85
2022/11/20 06:52:23;;;;;;;28.27;16.17;;;1.10;99.90;;;;;;4988858;28;20490;-84
2022/11/20 06:54:50;;;;;;;29.20;16.63;;;1.20;99.90;;;;;;4990702;28;20552;-85
2022/11/20 06:57:17;;;;;;;31.47;16.13;;;1.30;99.90;;;;;;4995843;28;21041;-84
2022/11/20 06:59:45;;;;;;;30.83;17.57;;;1.40;99.90;;;;;;4988523;28;20474;-85
2022/11/20 07:02:13;;;;;;;31.17;16.63;;;1.40;99.90;;;;;;4987354;28;20514;-85
2022/11/20 07:04:40;;;;;;;37.47;21.10;;;1.40;99.90;;;;;;4996924;28;20490;-84
2022/11/20 07:07:07;;;;;;;30.63;16.17;;;1.30;99.90;;;;;;5005412;28;20464;-84
2022/11/20 07:09:34;;;;;;;26.63;15.50;;;1.30;99.90;;;;;;5008373;28;20453;-83
2022/11/20 07:12:01;;;;;;;27.77;16.47;;;1.30;99.90;;;;;;4985766;28;20467;-85
2022/11/20 07:14:28;;;;;;;30.50;17.50;;;1.40;99.90;;;;;;4980427;28;20730;-84
2022/11/20 07:16:57;;;;;;;34.00;17.53;;;1.40;99.90;;;;;;4998819;28;20542;-84
2022/11/20 07:19:24;;;;;;;29.07;18.70;;;1.40;99.90;;;;;;4998763;28;20470;-85
2022/11/20 07:21:51;;;;;;;32.77;16.93;;;1.50;99.90;;;;;;4984757;28;20573;-85
2022/11/20 07:24:17;;;;;;;31.67;16.03;;;1.50;99.90;;;;;;4991708;28;20517;-85
2022/11/20 07:26:48;;;;;;;29.90;16.60;;;1.30;99.90;;;;;;4992582;28;20532;-84
2022/11/20 07:29:16;;;;;;;33.37;19.60;;;1.20;99.90;;;;;;4993036;28;20462;-87
2022/11/20 07:31:43;;;;;;;32.80;18.40;;;1.20;99.90;;;;;;4984305;28;20470;-85
2022/11/20 07:34:11;;;;;;;29.13;15.77;;;1.30;99.90;;;;;;4989617;28;20965;-84
2022/11/20 07:36:38;;;;;;;30.40;17.20;;;1.30;99.90;;;;;;4990143;28;20467;-83
2022/11/20 07:39:05;;;;;;;27.10;16.93;;;1.40;99.90;;;;;;4991862;28;20463;-83
2022/11/20 07:41:32;;;;;;;29.33;16.73;;;1.50;99.90;;;;;;4991701;28;20879;-84
2022/11/20 07:43:59;;;;;;;29.97;18.20;;;1.50;99.90;;;;;;4984847;28;20931;-86
2022/11/20 07:46:26;;;;;;;30.87;17.67;;;1.60;99.90;;;;;;4990659;28;20506;-85
2022/11/20 07:48:53;;;;;;;25.57;15.30;;;1.60;99.90;;;;;;4993207;28;20525;-84
2022/11/20 07:51:21;;;;;;;25.37;14.73;;;1.60;99.90;;;;;;4987349;28;20489;-85
2022/11/20 07:53:51;;;;;;;20.87;12.40;;;1.70;99.90;;;;;;4991489;28;20458;-85
2022/11/20 07:56:18;;;;;;;25.07;13.30;;;1.70;99.90;;;;;;4986894;28;20463;-85
2022/11/20 07:58:45;;;;;;;23.87;14.57;;;1.90;99.90;;;;;;4986172;28;20466;-85
2022/11/20 08:01:12;;;;;;;27.97;17.47;;;2.00;99.90;;;;;;4983100;28;20494;-85
2022/11/20 08:03:38;;;;;;;24.43;14.47;;;2.00;99.90;;;;;;4982235;28;20518;-86
2022/11/20 08:06:06;;;;;;;22.57;15.20;;;2.10;99.90;;;;;;4990821;28;21207;-84
2022/11/20 08:08:34;;;;;;;19.33;12.70;;;2.10;99.90;;;;;;4994099;28;20533;-85
2022/11/20 08:16:28;;;;;;;22.03;13.80;;;2.30;99.90;;;;;;4981930;28;20456;-85
2022/11/20 08:18:56;;;;;;;22.50;15.17;;;2.20;99.90;;;;;;4990864;28;20577;-85
2022/11/20 08:21:23;;;;;;;19.30;12.43;;;2.10;99.90;;;;;;4992065;28;20546;-85
2022/11/20 08:23:52;;;;;;;30.87;15.03;;;2.10;99.90;;;;;;4983670;28;20859;-85
2022/11/20 08:26:18;;;;;;;25.03;14.20;;;2.10;99.90;;;;;;4993449;28;20541;-85
2022/11/20 08:28:46;;;;;;;25.47;15.70;;;2.20;99.90;;;;;;4993953;28;20475;-84
2022/11/20 08:31:13;;;;;;;22.43;14.47;;;2.10;99.90;;;;;;4975817;28;20496;-85
2022/11/20 08:33:40;;;;;;;33.87;16.43;;;2.10;99.90;;;;;;4993839;28;20436;-85
2022/11/20 08:36:07;;;;;;;24.83;14.77;;;2.40;99.90;;;;;;4987010;28;20463;-85
2022/11/20 08:38:34;;;;;;;28.20;17.50;;;2.30;99.90;;;;;;4986915;28;20491;-87
2022/11/20 08:43:49;;;;;;;28.30;16.83;;;2.20;99.90;;;;;;4977362;28;20458;-85
2022/11/20 08:46:16;;;;;;;28.07;16.60;;;2.30;99.90;;;;;;4975806;28;20506;-85
2022/11/20 08:48:45;;;;;;;33.37;17.63;;;2.20;99.90;;;;;;4983774;28;20467;-85
2022/11/20 08:51:13;;;;;;;26.57;15.57;;;2.10;99.90;;;;;;4984197;28;20472;-84
2022/11/20 08:53:40;;;;;;;31.77;16.93;;;2.30;99.90;;;;;;4980219;28;20791;-84
2022/11/20 08:56:09;;;;;;;24.93;16.00;;;2.30;99.90;;;;;;4989380;28;20662;-84
2022/11/20 08:58:36;;;;;;;27.93;16.13;;;2.30;99.90;;;;;;4986244;28;20491;-84
2022/11/20 09:01:03;;;;;;;27.07;15.70;;;2.40;99.90;;;;;;4980680;28;20594;-84
2022/11/20 09:03:30;;;;;;;27.10;15.77;;;2.40;99.90;;;;;;4980733;28;20487;-85
2022/11/20 09:06:01;;;;;;;30.37;19.47;;;2.70;99.90;;;;;;4991341;28;20447;-85
2022/11/20 09:08:29;;;;;;;26.63;15.13;;;2.70;99.90;;;;;;5010860;28;20463;-85
2022/11/20 09:10:57;;;;;;;30.63;17.93;;;2.70;99.90;;;;;;5009540;28;20452;-86
2022/11/20 09:13:26;;;;;;;24.60;13.70;;;2.60;99.90;;;;;;4989391;28;20486;-84
2022/11/20 09:15:54;;;;;;;21.60;15.70;;;2.70;99.90;;;;;;4985151;28;21060;-84
2022/11/20 09:18:22;;;;;;;28.10;16.90;;;2.70;99.90;;;;;;4993897;28;20458;-84
2022/11/20 09:20:49;;;;;;;32.03;17.00;;;2.90;99.90;;;;;;4977882;28;20467;-84
2022/11/20 09:23:16;;;;;;;30.83;18.00;;;2.80;99.90;;;;;;4990820;28;20573;-83
2022/11/20 09:25:44;;;;;;;27.30;17.00;;;2.80;99.90;;;;;;4982340;28;20460;-84
2022/11/20 09:28:11;;;;;;;25.23;17.10;;;2.70;99.90;;;;;;4978917;28;20456;-84
2022/11/20 09:30:39;;;;;;;26.80;15.43;;;2.80;99.90;;;;;;4980080;28;20509;-85
2022/11/20 09:33:06;;;;;;;29.60;14.97;;;2.90;99.90;;;;;;4981696;28;20548;-84
2022/11/20 09:35:34;;;;;;;25.47;14.13;;;2.90;99.90;;;;;;4986470;28;20471;-84
2022/11/20 09:38:06;;;;;;;23.90;15.03;;;2.80;99.90;;;;;;4989262;28;20455;-85
2022/11/20 09:40:47;;;;;;;21.07;14.03;;;2.60;99.90;;;;;;4993396;28;21116;-85
2022/11/20 09:43:25;;;;;;;28.10;16.00;;;2.80;99.90;;;;;;4996855;28;20483;-85
2022/11/20 09:46:05;;;;;;;24.00;15.70;;;2.80;99.90;;;;;;4984071;28;20466;-85
2022/11/20 09:48:43;;;;;;;35.07;19.70;;;3.00;99.90;;;;;;4981705;28;20931;-85
2022/11/20 09:51:24;;;;;;;27.70;16.57;;;3.10;99.90;;;;;;4982943;28;20462;-86
2022/11/20 09:54:06;;;;;;;35.47;18.40;;;3.30;99.90;;;;;;4979329;28;20470;-85
2022/11/20 09:56:37;;;;;;;33.17;19.23;;;3.30;99.90;;;;;;4979135;28;20460;-85
2022/11/20 09:59:07;;;;;;;30.80;20.10;;;3.30;99.90;;;;;;4989490;28;20670;-85
2022/11/20 10:01:40;;;;;;;33.77;17.83;;;3.30;99.90;;;;;;4978895;28;20538;-84
2022/11/20 10:04:16;;;;;;;50.83;23.00;;;3.40;99.90;;;;;;4994233;28;20481;-83
2022/11/20 10:06:53;;;;;;;31.53;17.90;;;3.50;99.90;;;;;;4986390;28;20839;-84
2022/11/20 10:09:28;;;;;;;28.77;18.33;;;3.50;99.90;;;;;;4992728;28;20835;-84
2022/11/20 10:12:11;;;;;;;23.40;15.00;;;3.60;99.90;;;;;;4985484;28;20477;-84
2022/11/20 10:14:51;;;;;;;32.60;19.43;;;3.70;99.90;;;;;;4980112;28;20512;-84
2022/11/20 10:17:32;;;;;;;30.93;16.33;;;3.60;99.90;;;;;;4984577;28;20458;-87
2022/11/20 10:20:16;;;;;;;24.50;15.30;;;3.80;99.90;;;;;;4990086;28;20466;-86
2022/11/20 10:22:52;;;;;;;29.30;18.73;;;4.30;99.90;;;;;;4980653;28;20505;-85
2022/11/20 10:25:21;;;;;;;30.20;16.30;;;4.70;99.90;;;;;;4992221;28;20481;-86
2022/11/20 10:28:08;;;;;;;26.77;16.63;;;4.80;99.90;;;;;;4984819;28;20460;-85
2022/11/20 10:30:41;;;;;;;33.90;18.10;;;5.00;99.90;;;;;;4982378;28;20512;-87
2022/11/20 10:33:17;;;;;;;28.43;16.73;;;5.20;99.90;;;;;;4981333;28;20471;-85
2022/11/20 10:35:51;;;;;;;27.60;15.90;;;5.10;99.90;;;;;;4988049;28;20536;-86
2022/11/20 10:38:22;;;;;;;27.13;15.43;;;5.00;99.90;;;;;;4983220;28;20467;-86
2022/11/20 10:40:53;;;;;;;30.27;19.53;;;5.10;99.90;;;;;;4985048;28;20470;-85
2022/11/20 10:43:26;;;;;;;26.83;19.03;;;5.20;99.90;;;;;;4983831;28;20498;-87
2022/11/20 10:45:57;;;;;;;29.20;17.70;;;5.30;99.90;;;;;;4973755;28;20472;-85
2022/11/20 10:48:26;;;;;;;31.00;18.67;;;5.50;99.90;;;;;;4985697;28;20455;-85
2022/11/20 10:51:13;;;;;;;32.33;20.43;;;5.70;99.90;;;;;;4983021;28;20541;-85
2022/11/20 10:54:04;;;;;;;33.10;19.70;;;5.90;99.90;;;;;;4980738;28;20472;-85
2022/11/20 10:56:39;;;;;;;26.40;16.80;;;5.80;99.90;;;;;;4985390;28;20572;-85
2022/11/20 10:59:37;;;;;;;21.93;14.97;;;5.70;99.90;;;;;;4979583;28;20470;-86
2022/11/20 11:02:16;;;;;;;28.40;15.40;;;6.10;99.90;;;;;;4980352;28;20498;-85
2022/11/20 11:04:47;;;;;;;25.33;16.50;;;6.60;99.90;;;;;;4990865;28;20537;-87
2022/11/20 11:07:17;;;;;;;27.43;17.40;;;6.90;99.90;;;;;;5005984;28;20454;-86
2022/11/20 11:09:48;;;;;;;23.10;15.70;;;7.10;99.90;;;;;;5013305;28;20500;-86
2022/11/20 11:12:15;;;;;;;4.50;3.30;;;7.00;99.90;;;;;;5013507;28;20523;-86
2022/11/20 11:14:48;;;;;;;3.17;1.60;;;7.20;99.90;;;;;;5008518;28;20559;-85
2022/11/20 11:17:27;;;;;;;1.30;0.60;;;7.80;99.90;;;;;;4993836;28;20515;-86
2022/11/20 11:20:15;;;;;;;1.20;0.87;;;8.30;99.90;;;;;;4992457;28;20498;-87
2022/11/20 11:22:46;;;;;;;0.60;0.40;;;8.60;99.90;;;;;;4996582;28;20491;-87
2022/11/20 11:25:30;;;;;;;1.60;0.60;;;8.70;99.90;;;;;;4999355;28;20923;-86
2022/11/20 11:27:59;;;;;;;0.97;0.60;;;8.70;99.90;;;;;;4989025;28;20482;-88
2022/11/20 11:30:28;;;;;;;6.67;4.60;;;8.40;99.90;;;;;;4984338;28;20522;-87
2022/11/20 11:33:06;;;;;;;10.57;7.23;;;8.00;99.90;;;;;;4982709;28;21155;-89
2022/11/20 11:35:40;;;;;;;10.43;7.37;;;7.50;99.90;;;;;;4985837;28;20537;-88
2022/11/20 11:38:12;;;;;;;7.07;5.27;;;7.10;99.90;;;;;;4982466;28;21049;-89
2022/11/20 11:40:40;;;;;;;6.53;5.10;;;7.10;99.90;;;;;;4978275;28;21002;-87
2022/11/20 11:46:32;;;;;;;8.83;7.17;;;7.10;99.90;;;;;;4985068;28;20447;-87
2022/11/20 11:49:01;;;;;;;9.73;6.60;;;7.20;99.90;;;;;;4988969;28;20545;-89
2022/11/20 11:51:36;;;;;;;8.80;6.07;;;7.20;99.90;;;;;;4983178;28;20466;-87
2022/11/20 11:54:06;;;;;;;7.57;5.33;;;7.20;99.90;;;;;;4985380;28;20520;-88
2022/11/20 11:56:34;;;;;;;7.63;5.33;;;7.20;99.90;;;;;;4983197;28;20545;-87
2022/11/20 11:59:09;;;;;;;9.90;6.27;;;7.20;99.90;;;;;;4984366;28;20520;-87
2022/11/20 12:01:43;;;;;;;10.63;6.60;;;7.30;99.90;;;;;;4998435;28;20824;-87
2022/11/20 12:04:18;;;;;;;9.80;5.00;;;7.30;99.90;;;;;;4974368;28;20550;-88
2022/11/20 12:06:49;;;;;;;11.00;8.87;;;7.40;99.90;;;;;;4986999;28;20462;-87
2022/11/20 12:09:19;;;;;;;15.60;9.00;;;7.20;99.90;;;;;;4984872;28;20469;-87
2022/11/20 12:11:52;;;;;;;7.87;5.83;;;7.30;99.90;;;;;;4985311;28;20970;-88
2022/11/20 12:14:26;;;;;;;10.40;5.77;;;7.40;99.90;;;;;;4986524;28;20474;-86
2022/11/20 12:16:55;;;;;;;8.60;6.27;;;7.50;99.90;;;;;;4981044;28;20459;-88
2022/11/20 12:19:22;;;;;;;13.80;10.27;;;7.50;99.90;;;;;;4986530;28;21230;-88
2022/11/20 12:22:03;;;;;;;17.20;10.30;;;7.60;99.90;;;;;;4991837;28;21033;-87
2022/11/20 12:24:45;;;;;;;16.00;10.13;;;7.40;99.90;;;;;;4986913;28;20482;-87
2022/11/20 12:27:48;;;;;;;13.50;10.27;;;7.20;99.90;;;;;;4985819;28;20524;-88
2022/11/20 12:30:17;;;;;;;20.60;13.60;;;7.10;99.90;;;;;;4983569;28;20470;-88
2022/11/20 12:33:07;;;;;;;14.37;9.43;;;7.00;99.90;;;;;;4997270;28;20517;-88
2022/11/20 12:35:58;;;;;;;14.97;9.60;;;7.00;99.90;;;;;;4990887;28;20464;-87
2022/11/20 12:38:52;;;;;;;20.53;12.83;;;6.90;99.90;;;;;;4983682;28;20924;-88
2022/11/20 12:47:19;;;;;;;16.80;12.30;;;6.30;99.90;;;;;;4991474;28;20518;-88
2022/11/20 12:49:53;;;;;;;19.80;12.50;;;6.00;99.90;;;;;;4981564;28;20470;-87
2022/11/20 12:52:34;;;;;;;17.93;11.60;;;5.90;99.90;;;;;;4989001;28;20443;-87
2022/11/20 12:55:21;;;;;;;19.70;12.07;;;5.90;99.90;;;;;;4979537;28;20464;-87
2022/11/20 12:57:54;;;;;;;20.90;14.50;;;5.90;99.90;;;;;;4976791;28;22081;-88
2022/11/20 13:00:23;;;;;;;19.27;14.00;;;5.90;99.90;;;;;;4984244;28;20467;-89
2022/11/20 13:03:08;;;;;;;21.90;13.80;;;6.00;99.90;;;;;;4988472;28;20483;-87
2022/11/20 13:05:44;;;;;;;18.40;13.53;;;6.10;99.90;;;;;;5006445;28;20461;-86
2022/11/20 13:08:19;;;;;;;18.30;13.30;;;6.20;99.90;;;;;;5011309;28;20505;-87
2022/11/20 13:10:52;;;;;;;16.27;11.53;;;6.30;99.90;;;;;;4989450;28;20582;-87